Terminal Aerodrome Forecast
Issued by NWS Melbourne, FL

Home | Current Version | Previous Version | Text Only | Print | Product List | Glossary On
Versions: 1 2 3 4 5 6 7 8 9 10 11 12 13 14 15 16 17 18 19 20 21
320
FTUS42 KMLB 252325
TAFVRB
TAF
KVRB 252325Z 2600/2624 03005KT P6SM FEW035 SCT250
     FM260200 30003KT P6SM FEW015
     FM261400 31004KT P6SM FEW025
     FM261800 06009KT P6SM FEW035=

USA.gov is the U.S. government's official web portal to all federal, state and local government web resources and services.